Time;durP1;ratioP1;P1;durP2;ratioP2;P2;SDS_P1;SDS_P2;PMS_P1;PMS_P2;Temp;Humidity;BMP_temperature;BMP_pressure;BME280_temperature;BME280_humidity;BME280_pressure;Samples;Min_cycle;Max_cycle;Signal;HPM_P1;HPM_P2
2021/11/11 00:00:31;;;;;;;26.30;18.57;;;;;;;5.16;92.52;100288.53;1699104;83;20937;-68
2021/11/11 00:03:00;;;;;;;31.82;19.37;;;;;;;5.21;92.62;100295.36;1702463;82;20958;-69
2021/11/11 00:05:27;;;;;;;;;;;;;;;5.24;92.57;100300.52;1647900;85;20955;-68
2021/11/11 00:07:54;;;;;;;26.62;18.98;;;;;;;5.27;92.50;100300.46;1649997;85;20868;-68
2021/11/11 00:10:22;;;;;;;31.75;25.08;;;;;;;5.29;92.60;100280.55;1700141;83;20876;-69
2021/11/11 00:12:49;;;;;;;27.40;19.50;;;;;;;5.33;92.58;100270.58;1702678;83;21458;-68
2021/11/11 00:15:17;;;;;;;25.25;18.75;;;;;;;5.33;92.49;100275.31;1669995;84;21045;-68
2021/11/11 00:17:45;;;;;;;30.23;19.42;;;;;;;5.33;92.25;100271.88;1701255;82;24563;-68
2021/11/11 00:20:14;;;;;;;32.70;18.32;;;;;;;5.31;92.39;100282.69;1674206;84;20877;-68
2021/11/11 00:22:43;;;;;;;24.27;18.40;;;;;;;5.37;92.59;100283.88;1672245;84;21088;-68
2021/11/11 00:25:11;;;;;;;28.17;18.90;;;;;;;5.43;92.59;100275.99;1676569;85;20991;-68
2021/11/11 00:27:39;;;;;;;24.60;17.90;;;;;;;5.43;92.44;100275.99;1639961;85;21289;-68
2021/11/11 00:30:09;;;;;;;25.77;18.45;;;;;;;5.46;92.47;100266.90;1643224;85;20963;-68
2021/11/11 00:32:36;;;;;;;22.55;17.57;;;;;;;5.44;92.36;100269.95;1642557;85;20925;-68
2021/11/11 00:35:04;;;;;;;24.30;17.75;;;;;;;5.44;92.30;100276.42;1650051;84;20933;-68
2021/11/11 00:37:31;;;;;;;25.32;18.60;;;;;;;5.44;92.24;100264.77;1679197;83;21571;-68
2021/11/11 00:39:58;;;;;;;23.30;17.77;;;;;;;5.42;92.22;100271.70;1699841;83;21893;-68
2021/11/11 00:42:24;;;;;;;25.05;17.35;;;;;;;5.42;92.08;100278.18;1702509;82;20957;-68
2021/11/11 00:44:51;;;;;;;24.70;18.62;;;;;;;5.39;91.96;100279.08;1701628;83;20978;-68
2021/11/11 00:47:19;;;;;;;27.67;18.67;;;;;;;5.39;92.16;100281.67;1701002;83;20996;-68
2021/11/11 00:49:45;;;;;;;;;;;;;;;5.41;92.19;100283.41;1675908;84;21060;-69
2021/11/11 00:52:12;;;;;;;24.92;17.57;;;;;;;5.41;92.16;100282.95;1670586;84;21048;-68
2021/11/11 00:54:41;;;;;;;29.67;17.27;;;;;;;5.40;92.18;100276.05;1629033;85;21718;-68
2021/11/11 00:57:09;;;;;;;23.35;17.48;;;;;;;5.41;92.23;100275.19;1667600;84;20981;-68
2021/11/11 00:59:36;;;;;;;26.80;18.00;;;;;;;5.41;92.19;100279.07;1700712;82;20924;-68
2021/11/11 01:02:07;;;;;;;28.87;18.83;;;;;;;5.41;92.13;100280.36;1699461;83;20905;-68
2021/11/11 01:04:32;;;;;;;29.32;19.45;;;;;;;5.43;92.28;100280.32;1690667;84;20979;-69
2021/11/11 01:06:59;;;;;;;27.27;18.07;;;;;;;5.44;92.23;100277.72;1697949;83;21484;-68
2021/11/11 01:09:25;;;;;;;24.37;17.65;;;;;;;5.50;92.50;100275.02;1699377;83;20946;-68
2021/11/11 01:11:52;;;;;;;26.43;18.83;;;;;;;5.49;92.14;100270.73;1686651;83;21500;-69
2021/11/11 01:14:19;;;;;;;27.20;18.40;;;;;;;5.47;92.10;100264.72;1701533;82;20906;-68
2021/11/11 01:16:46;;;;;;;25.63;18.00;;;;;;;5.46;92.12;100260.42;1701247;83;21488;-68
2021/11/11 01:19:12;;;;;;;27.17;18.07;;;;;;;5.47;92.10;100254.36;1701026;83;20912;-69
2021/11/11 01:21:39;;;;;;;25.20;17.97;;;;;;;5.48;92.17;100248.28;1701091;82;21231;-69
2021/11/11 01:24:07;;;;;;;27.62;18.62;;;;;;;5.52;92.26;100251.25;1668204;84;20958;-69
2021/11/11 01:26:33;;;;;;;23.67;18.92;;;;;;;5.53;92.23;100246.47;1668761;85;24762;-68
2021/11/11 01:29:00;;;;;;;25.32;17.90;;;;;;;5.54;92.24;100233.06;1670601;84;21042;-68
2021/11/11 01:31:27;;;;;;;25.17;17.77;;;;;;;5.53;92.07;100236.11;1701019;83;20913;-68
2021/11/11 01:33:54;;;;;;;25.97;17.57;;;;;;;5.52;92.08;100230.97;1681268;84;20915;-69
2021/11/11 01:36:20;;;;;;;27.40;17.75;;;;;;;5.51;91.95;100241.75;1701746;82;21532;-68
2021/11/11 01:38:47;;;;;;;24.52;17.37;;;;;;;5.50;91.92;100235.31;1699824;83;20902;-68
2021/11/11 01:41:14;;;;;;;21.20;16.77;;;;;;;5.51;92.08;100237.86;1701413;83;21074;-68
2021/11/11 01:43:40;;;;;;;24.87;17.12;;;;;;;5.57;92.35;100237.77;1705388;82;20902;-69
2021/11/11 01:46:07;;;;;;;25.82;17.30;;;;;;;5.61;92.31;100231.64;1700783;83;20989;-68
2021/11/11 01:48:34;;;;;;;22.10;17.62;;;;;;;5.68;92.37;100231.52;1700415;82;20969;-69
2021/11/11 01:51:01;;;;;;;23.40;18.63;;;;;;;5.71;92.32;100234.05;1698300;82;20942;-68
2021/11/11 01:53:27;;;;;;;30.40;18.27;;;;;;;5.75;92.33;100233.13;1640281;84;21548;-68
2021/11/11 01:55:54;;;;;;;26.20;18.67;;;;;;;5.79;92.38;100237.34;1635543;85;20952;-68
2021/11/11 01:58:21;;;;;;;26.23;19.43;;;;;;;5.79;92.20;100237.34;1651916;85;20925;-68
2021/11/11 02:00:55;;;;;;;27.75;19.12;;;;;;;5.78;92.16;100229.17;1683565;83;21659;-68
2021/11/11 02:03:23;;;;;;;25.72;18.80;;;;;;;5.80;92.22;100223.08;1663869;84;20989;-69
2021/11/11 02:05:51;;;;;;;21.93;17.62;;;;;;;5.77;92.00;100219.67;1680728;83;21064;-69
2021/11/11 02:08:18;;;;;;;26.57;17.73;;;;;;;5.73;91.97;100219.33;1686330;83;20929;-68
2021/11/11 02:10:45;;;;;;;21.60;17.00;;;;;;;5.72;91.99;100208.12;1685459;84;20985;-69
2021/11/11 02:13:14;;;;;;;22.00;16.62;;;;;;;5.70;91.91;100211.62;1664130;85;20901;-69
2021/11/11 02:15:41;;;;;;;23.27;15.65;;;;;;;5.69;91.88;100215.11;1663331;85;21498;-68
2021/11/11 02:18:09;;;;;;;24.55;17.17;;;;;;;5.65;91.78;100208.27;1647633;85;21685;-68
2021/11/11 02:20:40;;;;;;;24.67;17.85;;;;;;;5.60;91.67;100209.22;1674893;84;20963;-68
2021/11/11 02:23:11;;;;;;;22.67;17.05;;;;;;;5.58;91.75;100210.97;1690097;83;21168;-68
2021/11/11 02:25:39;;;;;;;24.72;18.27;;;;;;;5.58;91.91;100208.39;1658347;84;21480;-68
2021/11/11 02:28:10;;;;;;;23.60;17.37;;;;;;;5.55;91.89;100211.03;1651135;83;21076;-68
2021/11/11 02:30:41;;;;;;;22.37;17.12;;;;;;;5.60;92.00;100216.11;1658477;85;21959;-68
2021/11/11 02:33:15;;;;;;;24.70;17.42;;;;;;;5.64;92.15;100214.34;1639052;85;20915;-68
2021/11/11 02:35:44;;;;;;;24.67;17.02;;;;;;;5.67;92.08;100207.35;1649727;83;20966;-68
2021/11/11 02:38:13;;;;;;;23.83;18.12;;;;;;;5.69;92.14;100200.86;1655506;85;21556;-68
2021/11/11 02:40:41;;;;;;;24.87;18.65;;;;;;;5.56;92.18;100182.94;1686584;82;20985;-68
2021/11/11 02:43:10;;;;;;;26.27;18.27;;;;;;;5.66;92.03;100202.19;1722001;82;21976;-69
2021/11/11 02:45:42;;;;;;;24.98;18.40;;;;;;;5.64;91.97;100197.50;1716930;82;20858;-69
2021/11/11 02:48:11;;;;;;;27.98;18.25;;;;;;;5.60;91.88;100191.08;1707817;82;21068;-68
2021/11/11 02:50:38;;;;;;;23.80;18.02;;;;;;;5.57;91.92;100187.27;1683073;83;20945;-67
2021/11/11 02:53:08;;;;;;;31.87;18.62;;;;;;;5.57;91.93;100190.27;1664714;85;20970;-68
2021/11/11 02:55:35;;;;;;;24.37;18.70;;;;;;;5.54;91.80;100193.77;1687570;83;21071;-68
2021/11/11 02:58:02;;;;;;;28.50;19.05;;;;;;;5.58;92.10;100199.77;1673385;82;21056;-69
2021/11/11 03:00:46;;;;;;;26.20;19.37;;;;;;;5.60;92.06;100197.56;1650470;84;21020;-68
2021/11/11 03:03:13;;;;;;;26.55;18.57;;;;;;;5.59;92.06;100191.95;1672454;84;20968;-68
2021/11/11 03:05:40;;;;;;;28.37;18.63;;;;;;;5.58;91.94;100187.66;1653685;85;21076;-69
2021/11/11 03:08:09;;;;;;;24.65;18.90;;;;;;;5.59;91.96;100184.17;1669636;83;21776;-68
2021/11/11 03:10:39;;;;;;;27.17;19.60;;;;;;;5.58;92.03;100185.07;1676510;84;21462;-68
2021/11/11 03:13:08;;;;;;;27.02;20.37;;;;;;;5.63;92.08;100185.41;1669551;84;21026;-68
2021/11/11 03:15:35;;;;;;;29.18;20.00;;;;;;;5.64;92.04;100184.55;1669422;83;21568;-68
2021/11/11 03:18:03;;;;;;;23.98;19.02;;;;;;;5.68;92.05;100183.14;1658318;84;21145;-68
2021/11/11 03:20:30;;;;;;;;;;;;;;;5.66;91.94;100178.87;1702787;83;21030;-68
2021/11/11 03:22:57;;;;;;;27.45;19.73;;;;;;;5.63;91.93;100173.75;1701756;83;20126;-68
2021/11/11 03:25:28;;;;;;;32.08;20.15;;;;;;;5.58;91.85;100174.71;1662079;84;20894;-68
2021/11/11 03:27:55;;;;;;;29.02;20.60;;;;;;;5.41;91.90;100145.70;1702019;83;20937;-68
2021/11/11 03:30:24;;;;;;;33.88;20.90;;;;;;;5.55;91.88;100169.59;1697411;83;21609;-68
2021/11/11 03:32:51;;;;;;;31.30;22.52;;;;;;;5.52;91.82;100172.24;1633039;85;21118;-68
2021/11/11 03:35:19;;;;;;;28.92;21.68;;;;;;;5.54;91.98;100169.16;1700961;81;20892;-68
2021/11/11 03:37:48;;;;;;;32.03;21.45;;;;;;;5.56;92.11;100158.34;1699562;83;21430;-68
2021/11/11 03:40:19;;;;;;;27.60;20.32;;;;;;;5.57;92.06;100167.83;1704869;82;20934;-68
2021/11/11 03:42:47;;;;;;;27.67;21.02;;;;;;;5.57;91.99;100169.13;1699103;83;21100;-68
2021/11/11 03:45:14;;;;;;;29.57;21.70;;;;;;;5.55;91.82;100168.74;1675235;85;21079;-67
2021/11/11 03:47:41;;;;;;;30.15;21.77;;;;;;;5.53;91.95;100176.53;1642349;85;21023;-68
2021/11/11 03:50:09;;;;;;;28.17;21.97;;;;;;;5.59;92.25;100176.41;1655237;85;20958;-68
2021/11/11 03:52:35;;;;;;;;;;;;;;;5.63;92.25;100164.69;1648745;85;21489;-68
2021/11/11 03:55:04;;;;;;;34.88;23.22;;;;;;;5.61;92.18;100166.88;1664239;85;20100;-68
2021/11/11 03:57:31;;;;;;;33.70;22.05;;;;;;;5.58;92.07;100164.34;1676497;84;21256;-68
2021/11/11 03:59:58;;;;;;;32.15;22.50;;;;;;;5.54;92.01;100160.09;1689579;83;20957;-69
2021/11/11 04:02:26;;;;;;;29.02;21.57;;;;;;;5.52;91.99;100163.63;1687543;83;20968;-68
2021/11/11 04:04:54;;;;;;;32.08;22.65;;;;;;;5.50;92.00;100158.46;1631805;85;20973;-68
2021/11/11 04:07:21;;;;;;;32.78;24.00;;;;;;;5.53;92.21;100159.69;1686537;84;20977;-68
2021/11/11 04:09:48;;;;;;;28.87;21.87;;;;;;;5.54;92.27;100163.98;1687662;84;21121;-68
2021/11/11 04:12:15;;;;;;;33.20;20.55;;;;;;;5.57;92.32;100163.95;1663524;84;20943;-68
2021/11/11 04:14:44;;;;;;;33.27;22.40;;;;;;;5.56;92.13;100159.63;1690550;83;20974;-68
2021/11/11 04:17:11;;;;;;;31.90;21.75;;;;;;;5.47;92.19;100148.16;1679948;83;20899;-69
2021/11/11 04:19:38;;;;;;;32.90;21.33;;;;;;;5.59;92.21;100166.48;1655003;85;20979;-69
2021/11/11 04:22:05;;;;;;;32.03;22.07;;;;;;;5.63;92.30;100168.57;1636000;85;21077;-68
2021/11/11 04:24:32;;;;;;;32.90;22.13;;;;;;;5.63;92.29;100163.39;1634697;85;20979;-69
2021/11/11 04:27:08;;;;;;;32.95;22.10;;;;;;;5.65;92.21;100162.92;1687458;83;20911;-69
2021/11/11 04:29:32;;;;;;;28.45;21.15;;;;;;;5.66;92.25;100163.33;1684944;83;20914;-69
2021/11/11 04:32:06;;;;;;;32.00;21.77;;;;;;;5.66;92.20;100165.91;1661776;83;21819;-69
2021/11/11 04:34:30;;;;;;;32.65;22.05;;;;;;;5.67;92.27;100158.58;1685749;83;22083;-69
2021/11/11 04:42:30;;;;;;;30.70;21.50;;;;;;;5.63;92.26;100147.84;1684640;83;20952;-69
2021/11/11 05:01:15;;;;;;;41.15;27.80;;;;;;;5.66;92.50;100119.28;1686196;83;21117;-69
2021/11/11 05:03:39;;;;;;;39.05;26.35;;;;;;;5.66;92.54;100116.28;1685664;83;20942;-68
2021/11/11 05:06:06;;;;;;;37.23;25.92;;;;;;;5.68;92.60;100117.52;1687546;83;21070;-69
2021/11/11 05:08:33;;;;;;;33.67;24.65;;;;;;;5.68;92.58;100120.11;1667443;84;21632;-69
2021/11/11 05:11:01;;;;;;;40.67;26.97;;;;;;;5.66;92.44;100112.39;1704401;82;20988;-68
2021/11/11 05:13:29;;;;;;;34.98;24.90;;;;;;;5.64;92.44;100115.89;1685833;83;21726;-68
2021/11/11 05:15:57;;;;;;;34.48;24.50;;;;;;;5.63;92.51;100108.98;1682905;83;21690;-68
2021/11/11 05:18:24;;;;;;;37.45;24.30;;;;;;;5.63;92.56;100105.10;1672329;82;20914;-69
2021/11/11 05:20:51;;;;;;;43.52;28.07;;;;;;;5.63;92.52;100103.80;1708406;82;21004;-68
2021/11/11 05:23:19;;;;;;;38.35;25.68;;;;;;;5.63;92.46;100108.98;1709722;82;20979;-69
2021/11/11 05:25:46;;;;;;;37.13;25.48;;;;;;;5.63;92.56;100116.76;1715522;82;21461;-68
2021/11/11 05:28:13;;;;;;;38.58;27.00;;;;;;;5.64;92.44;100115.89;1712414;82;21538;-68
2021/11/11 05:30:39;;;;;;;40.67;26.42;;;;;;;5.64;92.52;100115.89;1693969;82;21074;-68
2021/11/11 05:33:07;;;;;;;40.00;27.13;;;;;;;5.67;92.65;100126.19;1692191;81;21059;-69
2021/11/11 05:35:33;;;;;;;;;;;;;;;5.69;92.62;100121.84;1715444;82;21006;-69
2021/11/11 05:38:01;;;;;;;38.63;27.15;;;;;;;5.71;92.75;100125.23;1710728;82;21087;-67
2021/11/11 05:40:28;;;;;;;38.65;26.02;;;;;;;5.72;92.76;100123.06;1694993;82;20905;-67
2021/11/11 05:42:55;;;;;;;39.60;26.30;;;;;;;5.74;92.78;100121.27;1671548;82;20967;-68
2021/11/11 05:45:22;;;;;;;36.03;26.13;;;;;;;5.71;92.62;100122.64;1713026;81;21098;-68
2021/11/11 05:47:50;;;;;;;38.75;26.35;;;;;;;5.67;92.58;100122.30;1682869;83;21670;-68
2021/11/11 05:50:18;;;;;;;34.27;26.12;;;;;;;5.64;92.51;100117.19;1659996;84;21210;-68
2021/11/11 05:52:46;;;;;;;39.35;26.82;;;;;;;5.63;92.55;100119.34;1689342;82;21563;-69
2021/11/11 05:55:12;;;;;;;;;;;;;;;5.59;92.48;100115.53;1715118;82;20898;-68
2021/11/11 05:57:39;;;;;;;34.23;25.75;;;;;;;5.56;92.52;100111.71;1712126;82;20811;-68
2021/11/11 06:00:11;;;;;;;41.30;27.15;;;;;;;5.55;92.56;100110.02;1700802;82;21499;-68
2021/11/11 06:02:37;;;;;;;37.08;25.23;;;;;;;5.54;92.67;100116.06;1699347;83;21085;-68
2021/11/11 06:05:05;;;;;;;41.27;26.97;;;;;;;5.52;92.67;100112.67;1678504;81;20939;-68
2021/11/11 06:07:32;;;;;;;37.13;27.10;;;;;;;5.52;92.66;100120.44;1701085;83;20950;-68
2021/11/11 06:09:59;;;;;;;34.23;26.27;;;;;;;5.50;92.69;100117.02;1701263;83;20981;-69
2021/11/11 06:12:25;;;;;;;36.98;26.85;;;;;;;5.52;92.75;100119.59;1701028;83;21022;-69
2021/11/11 06:14:52;;;;;;;33.70;27.20;;;;;;;5.54;92.91;100123.83;1663042;84;21895;-67
2021/11/11 06:17:19;;;;;;;40.43;28.97;;;;;;;5.53;92.75;100129.91;1668291;84;20949;-68
2021/11/11 06:19:48;;;;;;;39.10;27.25;;;;;;;5.57;93.06;100128.98;1651613;85;20910;-68
2021/11/11 06:22:19;;;;;;;35.70;26.55;;;;;;;5.60;92.98;100131.50;1651243;85;22026;-68
2021/11/11 06:24:46;;;;;;;39.20;27.07;;;;;;;5.57;92.77;100128.98;1631329;85;21572;-67
2021/11/11 06:27:13;;;;;;;35.58;26.70;;;;;;;5.57;92.80;100132.86;1660582;84;21208;-68
2021/11/11 06:29:40;;;;;;;36.05;26.95;;;;;;;5.59;92.87;100134.95;1669929;84;20969;-68
2021/11/11 06:32:08;;;;;;;37.55;27.60;;;;;;;5.59;92.91;100137.55;1651445;85;20926;-68
2021/11/11 06:34:34;;;;;;;39.18;28.38;;;;;;;5.63;93.05;100140.07;1701380;82;20994;-68
2021/11/11 06:37:01;;;;;;;39.83;29.30;;;;;;;5.61;92.92;100143.56;1666201;85;20992;-68
2021/11/11 06:39:28;;;;;;;43.35;28.92;;;;;;;5.65;92.91;100151.27;1649824;85;21642;-68
2021/11/11 06:41:55;;;;;;;43.17;29.07;;;;;;;5.66;93.05;100147.78;1702872;83;21005;-69
2021/11/11 06:44:23;;;;;;;42.07;29.23;;;;;;;5.75;93.34;100142.44;1702832;83;20937;-69
2021/11/11 06:46:51;;;;;;;39.92;29.42;;;;;;;5.83;93.42;100150.90;1702359;83;21024;-70
2021/11/11 06:49:19;;;;;;;41.37;28.12;;;;;;;5.88;93.46;100149.07;1705444;82;20970;-69
2021/11/11 06:51:45;;;;;;;;;;;;;;;5.96;93.56;100152.36;1670051;84;21041;-69
2021/11/11 06:54:12;;;;;;;38.75;28.38;;;;;;;6.02;93.50;100151.38;1700164;83;20075;-70
2021/11/11 06:56:40;;;;;;;36.57;26.80;;;;;;;6.05;93.34;100150.04;1679652;83;20930;-71
2021/11/11 06:59:07;;;;;;;37.75;26.68;;;;;;;6.03;93.24;100148.76;1709637;82;20897;-68
2021/11/11 07:01:34;;;;;;;36.38;25.60;;;;;;;6.01;93.01;100142.75;1688457;83;21700;-69
2021/11/11 07:04:01;;;;;;;33.23;25.37;;;;;;;5.96;92.88;100147.17;1685165;83;21848;-70
2021/11/11 07:06:28;;;;;;;38.05;25.02;;;;;;;5.94;93.02;100146.38;1684889;84;20930;-69
2021/11/11 07:08:55;;;;;;;32.40;25.17;;;;;;;5.94;93.07;100142.94;1685853;83;21622;-70
2021/11/11 07:11:22;;;;;;;38.77;27.17;;;;;;;5.92;93.01;100140.78;1685231;83;20948;-69
2021/11/11 07:13:49;;;;;;;36.65;27.17;;;;;;;5.91;93.06;100146.83;1664096;82;20943;-70
2021/11/11 07:16:15;;;;;;;39.15;27.15;;;;;;;5.90;93.02;100140.80;1666681;84;21149;-70
2021/11/11 07:18:42;;;;;;;36.38;27.27;;;;;;;5.91;93.13;100142.52;1683871;83;20965;-69
2021/11/11 07:21:09;;;;;;;38.28;28.75;;;;;;;5.89;93.01;100144.29;1685005;83;21117;-69
2021/11/11 07:23:36;;;;;;;36.53;26.10;;;;;;;5.87;93.08;100144.75;1684657;83;21007;-69
2021/11/11 07:26:03;;;;;;;34.58;28.12;;;;;;;5.91;93.35;100145.11;1684730;83;20969;-68
2021/11/11 07:28:30;;;;;;;35.38;26.97;;;;;;;5.96;93.37;100139.39;1684754;83;21105;-69
2021/11/11 07:30:56;;;;;;;36.53;29.40;;;;;;;5.97;93.33;100133.34;1685616;83;20942;-70
2021/11/11 07:33:23;;;;;;;38.40;27.55;;;;;;;6.03;93.60;100133.20;1682939;83;21512;-70
2021/11/11 07:35:50;;;;;;;42.38;27.77;;;;;;;6.13;93.58;100127.36;1683780;83;21470;-70
2021/11/11 07:38:18;;;;;;;28.20;21.20;;;;;;;6.21;93.53;100120.70;1639093;83;20964;-70
2021/11/11 07:40:45;;;;;;;38.13;28.98;;;;;;;6.34;93.70;100124.73;1692101;82;21094;-70
2021/11/11 07:43:12;;;;;;;38.70;24.02;;;;;;;6.60;93.78;100111.58;1684866;83;25615;-70
2021/11/11 07:45:40;;;;;;;29.85;23.15;;;;;;;6.60;93.78;100111.58;1684418;83;20957;-70
2021/11/11 07:48:07;;;;;;;38.20;28.32;;;;;;;6.73;93.58;100109.09;1682924;83;20988;-72
2021/11/11 07:50:38;;;;;;;31.85;23.77;;;;;;;6.85;93.78;100113.95;1682956;83;21508;-71
2021/11/11 07:53:09;;;;;;;33.23;23.60;;;;;;;7.00;93.73;100114.44;1717880;82;21058;-71
2021/11/11 07:55:34;;;;;;;27.52;21.00;;;;;;;7.06;93.62;100116.91;1717502;81;21576;-71
2021/11/11 07:58:02;;;;;;;27.75;22.20;;;;;;;7.14;93.75;100115.80;1662250;83;20964;-68
2021/11/11 08:00:29;;;;;;;31.55;21.62;;;;;;;7.17;93.67;100118.31;1682702;83;21479;-69
2021/11/11 08:02:56;;;;;;;27.30;21.53;;;;;;;7.17;93.45;100120.06;1682651;83;20954;-70
2021/11/11 08:05:22;;;;;;;32.17;22.10;;;;;;;7.17;93.56;100122.66;1669059;84;21189;-70
2021/11/11 08:07:50;;;;;;;29.27;22.42;;;;;;;7.16;93.43;100126.13;1689321;82;21447;-71
2021/11/11 08:10:20;;;;;;;25.75;21.10;;;;;;;7.17;93.65;100127.86;1654282;84;21103;-70
2021/11/11 08:12:48;;;;;;;30.27;22.02;;;;;;;7.21;93.76;100125.56;1658413;85;21581;-70
2021/11/11 08:15:16;;;;;;;32.48;21.55;;;;;;;7.22;93.67;100124.66;1638759;85;20948;-70
2021/11/11 08:17:43;;;;;;;28.52;21.90;;;;;;;7.21;93.56;100130.77;1610532;84;22011;-69
2021/11/11 08:20:13;;;;;;;;;;;;;;;7.18;93.53;100128.25;1680515;83;21041;-70
2021/11/11 08:22:41;;;;;;;28.62;22.25;;;;;;;7.18;93.62;100126.95;1689212;82;20133;-70
2021/11/11 08:25:10;;;;;;;29.90;20.72;;;;;;;7.20;93.74;100123.88;1719285;81;20937;-71
2021/11/11 08:27:39;;;;;;;27.45;20.27;;;;;;;7.18;93.73;100122.60;1694885;82;20972;-69
2021/11/11 08:30:10;;;;;;;30.20;19.23;;;;;;;7.22;93.99;100118.17;1716234;82;21058;-69
2021/11/11 08:32:37;;;;;;;25.55;19.05;;;;;;;7.27;93.93;100123.25;1660369;83;21018;-71
2021/11/11 08:35:05;;;;;;;26.05;18.50;;;;;;;7.27;93.83;100116.30;1668767;83;21051;-70
2021/11/11 08:37:32;;;;;;;25.37;19.32;;;;;;;7.28;93.75;100115.43;1683530;83;21485;-70
2021/11/11 08:39:59;;;;;;;20.57;16.23;;;;;;;7.33;94.04;100122.63;1663133;84;21072;-70
2021/11/11 08:42:25;;;;;;;21.35;17.02;;;;;;;7.33;93.86;100112.23;1709672;82;21127;-70
2021/11/11 08:44:53;;;;;;;20.23;16.60;;;;;;;7.34;93.96;100111.81;1715664;82;21018;-70
2021/11/11 08:47:20;;;;;;;;;;;;;;;7.39;93.99;100115.98;1718451;82;21318;-69
2021/11/11 08:49:51;;;;;;;22.77;16.10;;;;;;;7.44;94.12;100110.64;1712256;82;20472;-67
2021/11/11 08:52:17;;;;;;;19.55;15.13;;;;;;;7.51;94.20;100100.95;1701666;82;21009;-72
2021/11/11 08:54:44;;;;;;;18.90;14.43;;;;;;;7.58;94.29;100105.05;1684391;83;21084;-72
2021/11/11 08:57:12;;;;;;;18.43;14.17;;;;;;;7.67;94.25;100104.77;1672245;83;20935;-72
2021/11/11 08:59:39;;;;;;;20.57;13.15;;;;;;;7.76;94.39;100103.69;1657436;84;21744;-72
2021/11/11 09:02:11;;;;;;;16.02;12.43;;;;;;;7.89;94.54;100106.75;1657716;84;21477;-71
2021/11/11 09:04:38;;;;;;;14.70;11.78;;;;;;;7.95;94.24;100113.06;1689059;83;20914;-71
2021/11/11 09:07:05;;;;;;;13.58;10.48;;;;;;;8.05;94.41;100111.89;1680168;84;22516;-70
2021/11/11 09:09:33;;;;;;;14.18;9.75;;;;;;;8.12;94.41;100118.59;1681627;83;20909;-71
2021/11/11 09:12:00;;;;;;;13.62;10.82;;;;;;;8.16;94.26;100120.22;1681344;83;20943;-71
2021/11/11 09:14:27;;;;;;;12.58;9.83;;;;;;;8.19;94.29;100111.02;1687182;83;20988;-71
2021/11/11 09:16:53;;;;;;;11.88;9.33;;;;;;;8.24;94.21;100111.73;1688450;83;21562;-71
2021/11/11 09:19:22;;;;;;;11.03;8.30;;;;;;;8.26;94.22;100115.14;1687627;83;20995;-71
2021/11/11 09:21:50;;;;;;;11.90;9.25;;;;;;;8.27;94.27;100114.23;1682479;83;21376;-71
2021/11/11 09:24:17;;;;;;;11.60;8.50;;;;;;;8.32;94.26;100102.81;1685875;83;20918;-71
2021/11/11 09:26:44;;;;;;;9.70;8.57;;;;;;;8.34;94.24;100093.21;1678900;83;20989;-71
2021/11/11 09:29:11;;;;;;;10.50;8.05;;;;;;;8.36;94.20;100095.33;1684286;84;21478;-71
2021/11/11 09:31:45;;;;;;;9.30;8.33;;;;;;;8.28;93.73;100092.50;1682119;83;21038;-71
2021/11/11 09:34:11;;;;;;;10.23;7.97;;;;;;;8.28;93.82;100092.50;1677220;83;20970;-71
2021/11/11 09:36:39;;;;;;;10.60;7.62;;;;;;;8.33;94.05;100078.52;1683914;83;21024;-71
2021/11/11 09:39:09;;;;;;;8.03;7.10;;;;;;;8.36;93.97;100081.02;1675086;82;21492;-71
2021/11/11 09:41:41;;;;;;;9.95;7.65;;;;;;;8.42;94.17;100087.34;1676505;83;21046;-70
2021/11/11 09:44:10;;;;;;;10.58;7.75;;;;;;;8.45;94.17;100085.95;1673032;83;21053;-70
2021/11/11 09:46:43;;;;;;;9.70;7.03;;;;;;;8.47;94.05;100076.34;1637791;85;21076;-69
2021/11/11 09:49:12;;;;;;;10.32;7.83;;;;;;;8.49;94.00;100074.55;1684412;83;20920;-70
2021/11/11 09:51:41;;;;;;;8.85;7.72;;;;;;;8.55;94.17;100074.34;1690485;84;20961;-70
2021/11/11 09:59:32;;;;;;;8.18;6.78;;;;;;;8.80;94.24;100077.42;1682471;84;21877;-69
2021/11/11 10:02:04;;;;;;;9.30;6.97;;;;;;;8.77;93.72;100068.42;1685011;84;21522;-69
2021/11/11 10:04:32;;;;;;;7.47;6.55;;;;;;;8.67;93.48;100069.16;1680732;84;21002;-69
2021/11/11 10:07:02;;;;;;;9.73;8.10;;;;;;;8.59;93.55;100070.72;1721624;82;20930;-70
2021/11/11 10:09:36;;;;;;;9.95;7.65;;;;;;;8.51;93.61;100071.42;1700579;83;20902;-69
2021/11/11 10:12:08;;;;;;;8.43;7.00;;;;;;;8.44;93.59;100068.64;1709059;82;20867;-70
2021/11/11 10:14:44;;;;;;;9.30;7.90;;;;;;;8.43;93.92;100063.02;1689595;83;21011;-69
2021/11/11 10:17:14;;;;;;;10.82;8.28;;;;;;;8.49;94.11;100061.53;1710551;82;20982;-69
2021/11/11 10:19:46;;;;;;;10.72;8.33;;;;;;;8.50;93.91;100058.02;1712796;83;20911;-70
2021/11/11 10:22:21;;;;;;;9.48;8.48;;;;;;;8.52;94.00;100056.23;1717180;83;21260;-70
2021/11/11 10:25:10;;;;;;;10.53;8.80;;;;;;;8.52;93.97;100049.72;1681890;82;20934;-70
2021/11/11 10:27:48;;;;;;;13.38;11.30;;;;;;;8.52;93.74;100048.42;1706790;82;20937;-70
2021/11/11 10:30:30;;;;;;;15.83;12.47;;;;;;;8.55;93.79;100043.11;1695116;83;21379;-70
2021/11/11 10:33:08;;;;;;;20.80;14.60;;;;;;;8.54;93.75;100036.19;1706613;82;21010;-71
2021/11/11 10:35:38;;;;;;;13.43;10.90;;;;;;;8.55;93.81;100032.70;1712941;82;22356;-72
2021/11/11 10:38:15;;;;;;;11.55;8.80;;;;;;;8.59;93.95;100031.67;1710761;83;21587;-69
2021/11/11 10:40:49;;;;;;;15.93;10.55;;;;;;;8.63;93.87;100041.09;1711555;82;21080;-69
2021/11/11 10:43:21;;;;;;;12.15;9.80;;;;;;;8.63;93.82;100043.70;1708295;82;20962;-69
2021/11/11 10:45:51;;;;;;;11.38;9.35;;;;;;;8.64;93.87;100046.69;1711611;82;20965;-69
2021/11/11 10:48:23;;;;;;;12.23;9.75;;;;;;;8.61;93.72;100045.50;1709606;82;21059;-69
2021/11/11 10:50:54;;;;;;;14.60;10.70;;;;;;;8.62;93.77;100041.98;1707484;83;20927;-71
2021/11/11 10:53:26;;;;;;;15.85;10.65;;;;;;;8.65;93.96;100043.17;1702547;83;21450;-73
2021/11/11 10:55:58;;;;;;;16.90;10.90;;;;;;;8.61;93.62;100034.23;1706056;82;21557;-73
2021/11/11 10:58:29;;;;;;;14.80;11.68;;;;;;;8.52;93.58;100028.91;1707352;82;21480;-73
2021/11/11 11:01:00;;;;;;;17.92;12.58;;;;;;;8.53;93.84;100025.84;1700099;82;21054;-73
2021/11/11 11:03:33;;;;;;;19.45;14.30;;;;;;;8.53;93.79;100021.48;1700330;83;20987;-73
2021/11/11 11:06:12;;;;;;;17.98;11.70;;;;;;;8.56;93.80;100022.67;1682149;84;21006;-70
2021/11/11 11:08:57;;;;;;;15.40;11.53;;;;;;;8.57;93.67;100024.81;1679905;83;21037;-73
2021/11/11 11:11:34;;;;;;;18.87;11.90;;;;;;;8.52;93.62;100022.39;1682844;83;21484;-73
2021/11/11 11:14:09;;;;;;;14.23;12.05;;;;;;;8.54;93.72;100017.97;1635168;84;21532;-73
2021/11/11 11:16:38;;;;;;;13.83;10.35;;;;;;;8.58;93.86;100022.17;1639224;85;21027;-72
2021/11/11 11:19:09;;;;;;;15.10;11.80;;;;;;;8.64;93.95;100015.45;1644644;85;20925;-74
2021/11/11 11:21:45;;;;;;;14.93;10.60;;;;;;;8.67;93.94;100010.59;1640462;86;20930;-72
2021/11/11 11:24:16;;;;;;;15.38;11.50;;;;;;;8.74;94.05;100014.24;1652139;85;21020;-70
2021/11/11 11:26:47;;;;;;;19.45;11.50;;;;;;;8.81;94.12;100005.75;1634130;86;21977;-73
2021/11/11 11:29:28;;;;;;;14.70;10.90;;;;;;;8.85;93.98;99998.67;1629383;86;20918;-73
2021/11/11 11:34:33;;;;;;;;;;;;;;;8.91;93.74;99988.06;1650182;85;20965;-74
2021/11/11 11:37:07;;;;;;;15.75;11.10;;;;;;;8.94;93.82;99993.16;1701221;82;20225;-74
2021/11/11 11:39:53;;;;;;;16.02;10.70;;;;;;;8.92;93.62;99993.66;1703696;82;21204;-73
2021/11/11 11:42:30;;;;;;;13.32;10.13;;;;;;;8.83;93.37;99988.33;1696905;82;20963;-73
2021/11/11 11:45:11;;;;;;;13.03;10.13;;;;;;;8.80;93.49;99985.84;1698608;83;20952;-73
2021/11/11 11:47:54;;;;;;;15.75;10.48;;;;;;;8.81;93.62;99981.47;1700679;82;20957;-73
2021/11/11 11:50:31;;;;;;;14.10;9.53;;;;;;;8.86;93.87;99980.86;1675665;82;21002;-73
2021/11/11 11:53:04;;;;;;;11.57;9.43;;;;;;;8.91;93.99;99978.95;1699046;82;22411;-73
2021/11/11 11:55:57;;;;;;;17.23;10.40;;;;;;;8.99;94.13;99983.85;1698068;82;20930;-73
2021/11/11 11:58:24;;;;;;;13.75;10.13;;;;;;;9.01;93.93;99978.98;1695906;82;20932;-74